sensor_id;sensor_type;location;lat;lon;timestamp;pressure;altitude;pressure_sealevel;temperature;humidity
47716;BME280;33476;50.984;3.538;2022-12-07T00:01:28;102076.34;;;8.54;69.73
47716;BME280;33476;50.984;3.538;2022-12-07T00:03:56;102068.50;;;8.56;69.90
47716;BME280;33476;50.984;3.538;2022-12-07T00:06:35;102054.66;;;8.54;69.92
47716;BME280;33476;50.984;3.538;2022-12-07T00:09:02;102060.41;;;8.68;69.70
47716;BME280;33476;50.984;3.538;2022-12-07T00:11:27;102060.56;;;8.62;69.15
47716;BME280;33476;50.984;3.538;2022-12-07T00:13:57;102055.53;;;8.53;70.12
47716;BME280;33476;50.984;3.538;2022-12-07T00:16:26;102042.56;;;8.50;70.21
47716;BME280;33476;50.984;3.538;2022-12-07T00:18:52;102052.03;;;8.54;69.45
47716;BME280;33476;50.984;3.538;2022-12-07T00:21:20;102047.72;;;8.51;69.67
47716;BME280;33476;50.984;3.538;2022-12-07T00:23:49;102052.16;;;8.48;69.69
47716;BME280;33476;50.984;3.538;2022-12-07T00:26:18;102043.56;;;8.42;69.75
47716;BME280;33476;50.984;3.538;2022-12-07T00:28:51;102050.56;;;8.40;69.68
47716;BME280;33476;50.984;3.538;2022-12-07T00:31:19;102045.41;;;8.34;69.91
47716;BME280;33476;50.984;3.538;2022-12-07T00:33:45;102043.81;;;8.29;69.95
47716;BME280;33476;50.984;3.538;2022-12-07T00:36:20;102044.78;;;8.23;70.30
47716;BME280;33476;50.984;3.538;2022-12-07T00:38:46;102043.88;;;8.24;70.67
47716;BME280;33476;50.984;3.538;2022-12-07T00:41:14;102039.63;;;8.20;70.02
47716;BME280;33476;50.984;3.538;2022-12-07T00:43:40;102038.75;;;8.21;70.09
47716;BME280;33476;50.984;3.538;2022-12-07T00:46:07;102036.19;;;8.20;70.37
47716;BME280;33476;50.984;3.538;2022-12-07T00:48:32;102039.63;;;8.18;70.24
47716;BME280;33476;50.984;3.538;2022-12-07T00:50:58;102030.16;;;8.16;70.38
47716;BME280;33476;50.984;3.538;2022-12-07T00:53:25;102030.13;;;8.17;69.88
47716;BME280;33476;50.984;3.538;2022-12-07T00:55:50;102034.56;;;8.12;70.26
47716;BME280;33476;50.984;3.538;2022-12-07T00:58:17;102023.34;;;8.09;70.21
47716;BME280;33476;50.984;3.538;2022-12-07T01:00:43;102026.88;;;8.06;70.10
47716;BME280;33476;50.984;3.538;2022-12-07T01:03:11;102033.88;;;8.03;70.51
47716;BME280;33476;50.984;3.538;2022-12-07T01:05:37;102028.69;;;8.03;69.94
47716;BME280;33476;50.984;3.538;2022-12-07T01:08:03;102029.56;;;8.00;70.00
47716;BME280;33476;50.984;3.538;2022-12-07T01:10:28;102023.56;;;7.98;69.71
47716;BME280;33476;50.984;3.538;2022-12-07T01:12:55;102017.53;;;7.96;70.32
47716;BME280;33476;50.984;3.538;2022-12-07T01:15:21;102021.84;;;7.97;69.33
47716;BME280;33476;50.984;3.538;2022-12-07T01:17:46;102026.22;;;7.94;69.87
47716;BME280;33476;50.984;3.538;2022-12-07T01:20:12;102035.84;;;7.90;69.77
47716;BME280;33476;50.984;3.538;2022-12-07T01:22:41;102043.63;;;7.90;69.73
47716;BME280;33476;50.984;3.538;2022-12-07T01:25:08;102044.47;;;7.92;69.80
47716;BME280;33476;50.984;3.538;2022-12-07T01:27:34;102043.59;;;7.92;69.73
47716;BME280;33476;50.984;3.538;2022-12-07T01:30:00;102034.94;;;7.91;69.62
47716;BME280;33476;50.984;3.538;2022-12-07T01:32:26;102034.06;;;7.92;70.07
47716;BME280;33476;50.984;3.538;2022-12-07T01:34:52;102037.50;;;7.93;69.92
47716;BME280;33476;50.984;3.538;2022-12-07T01:37:17;102043.53;;;7.96;69.54
47716;BME280;33476;50.984;3.538;2022-12-07T01:39:42;102034.88;;;7.94;69.77
47716;BME280;33476;50.984;3.538;2022-12-07T01:42:10;102032.34;;;7.91;69.39
47716;BME280;33476;50.984;3.538;2022-12-07T01:47:38;102037.44;;;7.97;69.39
47716;BME280;33476;50.984;3.538;2022-12-07T01:50:04;102035.69;;;7.98;69.30
47716;BME280;33476;50.984;3.538;2022-12-07T01:52:31;102031.41;;;7.94;69.89
47716;BME280;33476;50.984;3.538;2022-12-07T01:55:02;102028.81;;;7.94;69.89
47716;BME280;33476;50.984;3.538;2022-12-07T01:57:30;102020.09;;;7.98;69.45
47716;BME280;33476;50.984;3.538;2022-12-07T01:59:56;102020.88;;;8.01;69.96
47716;BME280;33476;50.984;3.538;2022-12-07T02:02:30;102024.41;;;7.99;69.13
47716;BME280;33476;50.984;3.538;2022-12-07T02:05:01;102020.88;;;8.03;69.50
47716;BME280;33476;50.984;3.538;2022-12-07T02:07:27;102021.66;;;8.06;70.09
47716;BME280;33476;50.984;3.538;2022-12-07T02:09:54;102018.13;;;8.09;70.01
47716;BME280;33476;50.984;3.538;2022-12-07T02:12:20;102019.00;;;8.09;69.81
47716;BME280;33476;50.984;3.538;2022-12-07T02:14:45;102020.75;;;8.09;69.86
47716;BME280;33476;50.984;3.538;2022-12-07T02:17:16;102018.22;;;8.06;69.56
47716;BME280;33476;50.984;3.538;2022-12-07T02:20:00;102019.06;;;8.06;70.02
47716;BME280;33476;50.984;3.538;2022-12-07T02:22:54;102012.16;;;8.05;69.53
47716;BME280;33476;50.984;3.538;2022-12-07T02:30:50;102011.38;;;8.00;69.80
47716;BME280;33476;50.984;3.538;2022-12-07T02:33:37;102010.69;;;7.91;69.47
47716;BME280;33476;50.984;3.538;2022-12-07T02:38:39;102011.63;;;7.85;69.61
47716;BME280;33476;50.984;3.538;2022-12-07T02:41:12;102016.88;;;7.83;69.65
47716;BME280;33476;50.984;3.538;2022-12-07T02:43:46;102010.88;;;7.80;69.37
47716;BME280;33476;50.984;3.538;2022-12-07T02:46:17;102018.63;;;7.83;69.52
47716;BME280;33476;50.984;3.538;2022-12-07T02:48:45;102016.84;;;7.86;69.47
47716;BME280;33476;50.984;3.538;2022-12-07T02:51:11;102021.16;;;7.86;69.60
47716;BME280;33476;50.984;3.538;2022-12-07T02:53:39;102025.53;;;7.84;69.54
47716;BME280;33476;50.984;3.538;2022-12-07T03:12:31;102022.25;;;7.73;69.52
47716;BME280;33476;50.984;3.538;2022-12-07T03:15:35;102024.94;;;7.70;69.56
47716;BME280;33476;50.984;3.538;2022-12-07T03:18:05;102017.91;;;7.73;69.44
47716;BME280;33476;50.984;3.538;2022-12-07T03:20:32;102008.44;;;7.69;69.75
47716;BME280;33476;50.984;3.538;2022-12-07T03:23:04;102012.81;;;7.67;69.39
47716;BME280;33476;50.984;3.538;2022-12-07T03:25:29;102011.91;;;7.68;68.70
47716;BME280;33476;50.984;3.538;2022-12-07T03:28:02;102005.03;;;7.66;69.15
47716;BME280;33476;50.984;3.538;2022-12-07T03:30:32;101999.78;;;7.70;69.31
47716;BME280;33476;50.984;3.538;2022-12-07T03:33:10;101995.50;;;7.66;69.20
47716;BME280;33476;50.984;3.538;2022-12-07T03:35:41;102005.88;;;7.68;69.49
47716;BME280;33476;50.984;3.538;2022-12-07T03:38:19;102001.59;;;7.65;69.47
47716;BME280;33476;50.984;3.538;2022-12-07T03:41:05;101995.47;;;7.68;69.21
47716;BME280;33476;50.984;3.538;2022-12-07T03:43:32;101988.53;;;7.68;69.02
47716;BME280;33476;50.984;3.538;2022-12-07T03:49:04;101985.94;;;7.67;69.60
47716;BME280;33476;50.984;3.538;2022-12-07T03:52:04;101987.69;;;7.66;69.43
47716;BME280;33476;50.984;3.538;2022-12-07T03:54:42;101981.63;;;7.66;69.00
47716;BME280;33476;50.984;3.538;2022-12-07T03:57:10;101983.34;;;7.67;69.21
47716;BME280;33476;50.984;3.538;2022-12-07T03:59:37;101981.66;;;7.64;68.91
47716;BME280;33476;50.984;3.538;2022-12-07T04:02:05;101989.50;;;7.63;69.51
47716;BME280;33476;50.984;3.538;2022-12-07T04:04:32;101998.22;;;7.58;68.99
47716;BME280;33476;50.984;3.538;2022-12-07T04:06:58;101995.66;;;7.57;69.04
47716;BME280;33476;50.984;3.538;2022-12-07T04:09:23;101995.66;;;7.57;69.47
47716;BME280;33476;50.984;3.538;2022-12-07T04:11:49;101987.84;;;7.57;69.05
47716;BME280;33476;50.984;3.538;2022-12-07T04:14:15;101976.59;;;7.56;68.88
47716;BME280;33476;50.984;3.538;2022-12-07T04:16:44;101988.78;;;7.54;69.43
47716;BME280;33476;50.984;3.538;2022-12-07T04:19:10;101995.72;;;7.52;69.08
47716;BME280;33476;50.984;3.538;2022-12-07T04:21:35;101994.06;;;7.48;68.84
47716;BME280;33476;50.984;3.538;2022-12-07T04:24:00;101991.53;;;7.44;68.72
47716;BME280;33476;50.984;3.538;2022-12-07T04:26:26;101985.53;;;7.40;68.49
47716;BME280;33476;50.984;3.538;2022-12-07T04:28:51;101983.00;;;7.36;68.95
47716;BME280;33476;50.984;3.538;2022-12-07T04:31:16;101983.84;;;7.36;68.48
47716;BME280;33476;50.984;3.538;2022-12-07T04:33:42;101988.22;;;7.34;69.03
47716;BME280;33476;50.984;3.538;2022-12-07T04:36:07;101988.31;;;7.28;68.68
47716;BME280;33476;50.984;3.538;2022-12-07T04:38:32;101990.09;;;7.26;68.74
47716;BME280;33476;50.984;3.538;2022-12-07T04:40:58;101987.44;;;7.30;68.65
47716;BME280;33476;50.984;3.538;2022-12-07T04:43:23;101991.78;;;7.30;68.96
47716;BME280;33476;50.984;3.538;2022-12-07T04:45:49;102007.38;;;7.27;68.30
47716;BME280;33476;50.984;3.538;2022-12-07T04:48:15;102000.56;;;7.21;68.67
47716;BME280;33476;50.984;3.538;2022-12-07T04:50:41;101998.84;;;7.19;68.34
47716;BME280;33476;50.984;3.538;2022-12-07T04:53:06;101991.03;;;7.22;68.49
47716;BME280;33476;50.984;3.538;2022-12-07T04:55:31;101990.06;;;7.27;68.87
47716;BME280;33476;50.984;3.538;2022-12-07T04:57:57;101985.69;;;7.31;68.34
47716;BME280;33476;50.984;3.538;2022-12-07T05:00:22;101988.22;;;7.34;68.79
47716;BME280;33476;50.984;3.538;2022-12-07T05:02:47;101990.81;;;7.34;68.46
47716;BME280;33476;50.984;3.538;2022-12-07T05:05:13;101988.22;;;7.34;69.11
47716;BME280;33476;50.984;3.538;2022-12-07T05:07:38;101987.38;;;7.33;68.79
47716;BME280;33476;50.984;3.538;2022-12-07T05:10:04;101987.38;;;7.33;69.12
47716;BME280;33476;50.984;3.538;2022-12-07T05:12:30;101987.31;;;7.38;68.98
47716;BME280;33476;50.984;3.538;2022-12-07T05:14:55;101989.06;;;7.38;68.81
47716;BME280;33476;50.984;3.538;2022-12-07T05:17:20;101990.72;;;7.40;68.59
47716;BME280;33476;50.984;3.538;2022-12-07T05:19:46;101978.59;;;7.41;68.40
47716;BME280;33476;50.984;3.538;2022-12-07T05:22:11;101988.94;;;7.44;69.13
47716;BME280;33476;50.984;3.538;2022-12-07T05:24:38;101985.47;;;7.45;68.80
47716;BME280;33476;50.984;3.538;2022-12-07T05:27:03;101987.16;;;7.47;69.24
47716;BME280;33476;50.984;3.538;2022-12-07T05:29:29;101984.53;;;7.49;69.22
47716;BME280;33476;50.984;3.538;2022-12-07T05:31:54;101982.75;;;7.51;69.06
47716;BME280;33476;50.984;3.538;2022-12-07T05:34:19;101982.75;;;7.51;69.00
47716;BME280;33476;50.984;3.538;2022-12-07T05:36:45;101980.16;;;7.51;68.98
47716;BME280;33476;50.984;3.538;2022-12-07T05:39:10;101981.03;;;7.50;69.06
47716;BME280;33476;50.984;3.538;2022-12-07T05:41:35;101985.34;;;7.51;68.80
47716;BME280;33476;50.984;3.538;2022-12-07T05:44:19;101977.59;;;7.49;68.58
47716;BME280;33476;50.984;3.538;2022-12-07T05:46:45;101971.69;;;7.40;68.87
47716;BME280;33476;50.984;3.538;2022-12-07T05:49:10;101980.41;;;7.36;68.96
47716;BME280;33476;50.984;3.538;2022-12-07T05:51:35;101977.88;;;7.31;68.83
47716;BME280;33476;50.984;3.538;2022-12-07T05:54:01;101968.41;;;7.28;68.70
47716;BME280;33476;50.984;3.538;2022-12-07T05:56:26;101971.00;;;7.27;69.20
47716;BME280;33476;50.984;3.538;2022-12-07T05:58:52;101969.31;;;7.24;69.29
47716;BME280;33476;50.984;3.538;2022-12-07T06:01:36;101972.78;;;7.25;69.28
47716;BME280;33476;50.984;3.538;2022-12-07T06:04:02;101964.94;;;7.26;69.05
47716;BME280;33476;50.984;3.538;2022-12-07T06:06:27;101971.03;;;7.25;68.79
47716;BME280;33476;50.984;3.538;2022-12-07T06:08:52;101964.97;;;7.25;68.70
47716;BME280;33476;50.984;3.538;2022-12-07T06:11:18;101966.72;;;7.24;68.79
47716;BME280;33476;50.984;3.538;2022-12-07T06:14:02;101965.84;;;7.25;68.52
47716;BME280;33476;50.984;3.538;2022-12-07T06:16:27;101973.59;;;7.27;68.77
47716;BME280;33476;50.984;3.538;2022-12-07T06:18:52;101972.72;;;7.28;69.12
47716;BME280;33476;50.984;3.538;2022-12-07T06:21:18;101974.41;;;7.32;69.07
47716;BME280;33476;50.984;3.538;2022-12-07T06:23:43;101974.34;;;7.35;68.86
47716;BME280;33476;50.984;3.538;2022-12-07T06:26:08;101976.09;;;7.35;68.76
47716;BME280;33476;50.984;3.538;2022-12-07T06:28:34;101980.50;;;7.31;68.76
47716;BME280;33476;50.984;3.538;2022-12-07T06:31:00;101964.09;;;7.26;68.90
47716;BME280;33476;50.984;3.538;2022-12-07T06:33:26;101975.34;;;7.26;69.13
47716;BME280;33476;50.984;3.538;2022-12-07T06:35:52;101969.25;;;7.27;68.90
47716;BME280;33476;50.984;3.538;2022-12-07T06:38:17;101973.59;;;7.27;69.00
47716;BME280;33476;50.984;3.538;2022-12-07T06:40:42;101984.84;;;7.27;68.92
47716;BME280;33476;50.984;3.538;2022-12-07T06:43:08;101989.25;;;7.24;69.38
47716;BME280;33476;50.984;3.538;2022-12-07T06:45:33;101999.69;;;7.22;68.93
47716;BME280;33476;50.984;3.538;2022-12-07T06:47:59;101997.94;;;7.23;69.29
47716;BME280;33476;50.984;3.538;2022-12-07T06:50:24;102000.56;;;7.21;69.43
47716;BME280;33476;50.984;3.538;2022-12-07T06:52:51;102007.44;;;7.24;69.74
47716;BME280;33476;50.984;3.538;2022-12-07T06:55:16;102011.69;;;7.28;69.59
47716;BME280;33476;50.984;3.538;2022-12-07T06:57:41;102012.56;;;7.30;69.55
47716;BME280;33476;50.984;3.538;2022-12-07T07:00:07;102003.81;;;7.34;69.83
47716;BME280;33476;50.984;3.538;2022-12-07T07:02:32;101989.94;;;7.35;69.44
47716;BME280;33476;50.984;3.538;2022-12-07T07:04:58;101991.66;;;7.36;69.87
47716;BME280;33476;50.984;3.538;2022-12-07T07:07:23;101983.84;;;7.38;70.19
47716;BME280;33476;50.984;3.538;2022-12-07T07:09:48;101974.28;;;7.40;70.22
47716;BME280;33476;50.984;3.538;2022-12-07T07:12:14;101968.31;;;7.33;70.16
47716;BME280;33476;50.984;3.538;2022-12-07T07:14:39;101970.94;;;7.31;70.21
47716;BME280;33476;50.984;3.538;2022-12-07T07:17:04;101972.59;;;7.36;70.25
47716;BME280;33476;50.984;3.538;2022-12-07T07:19:30;101976.06;;;7.36;70.51
47716;BME280;33476;50.984;3.538;2022-12-07T07:21:55;101982.97;;;7.39;70.12
47716;BME280;33476;50.984;3.538;2022-12-07T07:24:20;101981.25;;;7.36;70.97
47716;BME280;33476;50.984;3.538;2022-12-07T07:26:46;101985.63;;;7.34;70.67
47716;BME280;33476;50.984;3.538;2022-12-07T07:29:11;101989.94;;;7.37;70.42
47716;BME280;33476;50.984;3.538;2022-12-07T07:31:36;101983.81;;;7.39;70.54
47716;BME280;33476;50.984;3.538;2022-12-07T07:34:02;101985.53;;;7.40;70.58
47716;BME280;33476;50.984;3.538;2022-12-07T07:36:27;101991.59;;;7.41;70.20
47716;BME280;33476;50.984;3.538;2022-12-07T07:38:53;101993.28;;;7.45;70.64
47716;BME280;33476;50.984;3.538;2022-12-07T07:41:18;101995.88;;;7.45;70.50
47716;BME280;33476;50.984;3.538;2022-12-07T07:43:43;101994.97;;;7.44;70.14
47716;BME280;33476;50.984;3.538;2022-12-07T07:46:08;102001.97;;;7.41;70.34
47716;BME280;33476;50.984;3.538;2022-12-07T07:48:34;101999.31;;;7.44;70.70
47716;BME280;33476;50.984;3.538;2022-12-07T07:51:00;102005.38;;;7.46;70.43
47716;BME280;33476;50.984;3.538;2022-12-07T07:53:29;101995.81;;;7.48;70.69
47716;BME280;33476;50.984;3.538;2022-12-07T07:55:54;101990.66;;;7.46;70.96
47716;BME280;33476;50.984;3.538;2022-12-07T07:58:21;101996.72;;;7.45;70.51
47716;BME280;33476;50.984;3.538;2022-12-07T08:00:46;101994.16;;;7.42;70.39
47716;BME280;33476;50.984;3.538;2022-12-07T08:03:11;101988.06;;;7.45;70.87
47716;BME280;33476;50.984;3.538;2022-12-07T08:05:37;101993.25;;;7.46;70.65
47716;BME280;33476;50.984;3.538;2022-12-07T08:08:03;101999.31;;;7.45;70.70
47716;BME280;33476;50.984;3.538;2022-12-07T08:10:28;102001.06;;;7.45;71.15
47716;BME280;33476;50.984;3.538;2022-12-07T08:12:54;102008.88;;;7.45;70.81
47716;BME280;33476;50.984;3.538;2022-12-07T08:15:42;102001.06;;;7.43;71.30
47716;BME280;33476;50.984;3.538;2022-12-07T08:18:08;102005.34;;;7.47;70.74
47716;BME280;33476;50.984;3.538;2022-12-07T08:20:34;102011.31;;;7.54;70.52
47716;BME280;33476;50.984;3.538;2022-12-07T08:23:00;102011.31;;;7.52;70.94
47716;BME280;33476;50.984;3.538;2022-12-07T08:25:26;102012.16;;;7.53;70.96
47716;BME280;33476;50.984;3.538;2022-12-07T08:27:52;102013.06;;;7.52;70.98
47716;BME280;33476;50.984;3.538;2022-12-07T08:30:17;102014.75;;;7.56;70.74
47716;BME280;33476;50.984;3.538;2022-12-07T08:32:46;102015.66;;;7.53;71.36
47716;BME280;33476;50.984;3.538;2022-12-07T08:35:12;102019.88;;;7.59;71.19
47716;BME280;33476;50.984;3.538;2022-12-07T08:37:38;102019.00;;;7.62;70.75
47716;BME280;33476;50.984;3.538;2022-12-07T08:40:05;102015.47;;;7.64;70.78
47716;BME280;33476;50.984;3.538;2022-12-07T08:42:30;102011.06;;;7.68;70.84
47716;BME280;33476;50.984;3.538;2022-12-07T08:45:04;102014.47;;;7.73;70.36
47716;BME280;33476;50.984;3.538;2022-12-07T08:47:30;102013.50;;;7.77;70.54
47716;BME280;33476;50.984;3.538;2022-12-07T08:49:55;102016.03;;;7.81;70.10
47716;BME280;33476;50.984;3.538;2022-12-07T08:52:21;102018.59;;;7.84;69.76
47716;BME280;33476;50.984;3.538;2022-12-07T08:54:47;102015.94;;;7.87;70.37
47716;BME280;33476;50.984;3.538;2022-12-07T08:57:13;102024.59;;;7.88;70.54
47716;BME280;33476;50.984;3.538;2022-12-07T08:59:38;102018.47;;;7.91;70.38
47716;BME280;33476;50.984;3.538;2022-12-07T09:02:04;102020.19;;;7.92;70.60
47716;BME280;33476;50.984;3.538;2022-12-07T09:04:30;102006.28;;;7.93;70.44
47716;BME280;33476;50.984;3.538;2022-12-07T09:06:56;102004.66;;;7.88;70.61
47716;BME280;33476;50.984;3.538;2022-12-07T09:09:22;101997.91;;;7.78;71.68
47716;BME280;33476;50.984;3.538;2022-12-07T09:11:47;102003.94;;;7.80;71.56
47716;BME280;33476;50.984;3.538;2022-12-07T09:14:12;102007.34;;;7.82;71.32
47716;BME280;33476;50.984;3.538;2022-12-07T09:16:38;102015.09;;;7.85;71.00
47716;BME280;33476;50.984;3.538;2022-12-07T09:19:04;102021.16;;;7.87;71.39
47716;BME280;33476;50.984;3.538;2022-12-07T09:21:29;102015.06;;;7.88;71.38
47716;BME280;33476;50.984;3.538;2022-12-07T09:23:55;102018.59;;;7.84;71.67
47716;BME280;33476;50.984;3.538;2022-12-07T09:26:20;102016.84;;;7.86;71.60
47716;BME280;33476;50.984;3.538;2022-12-07T09:28:45;102007.16;;;7.95;71.41
47716;BME280;33476;50.984;3.538;2022-12-07T09:31:10;102012.22;;;8.01;72.12
47716;BME280;33476;50.984;3.538;2022-12-07T09:33:36;102006.97;;;8.02;71.02
47716;BME280;33476;50.984;3.538;2022-12-07T09:36:03;102002.56;;;8.07;71.17
47716;BME280;33476;50.984;3.538;2022-12-07T09:38:28;102002.50;;;8.12;71.07
47716;BME280;33476;50.984;3.538;2022-12-07T09:40:55;102000.59;;;8.18;71.19
47716;BME280;33476;50.984;3.538;2022-12-07T09:43:22;101993.13;;;8.48;70.47
47716;BME280;33476;50.984;3.538;2022-12-07T09:45:51;101992.84;;;8.62;70.35
47716;BME280;33476;50.984;3.538;2022-12-07T09:48:21;101991.78;;;9.09;69.50
47716;BME280;33476;50.984;3.538;2022-12-07T09:50:48;101990.78;;;9.50;68.39
47716;BME280;33476;50.984;3.538;2022-12-07T09:53:40;101988.94;;;9.55;68.21
47716;BME280;33476;50.984;3.538;2022-12-07T09:56:05;101982.06;;;9.53;68.28
47716;BME280;33476;50.984;3.538;2022-12-07T09:58:32;101995.09;;;9.53;68.46
47716;BME280;33476;50.984;3.538;2022-12-07T10:01:05;101986.63;;;9.79;67.76
47716;BME280;33476;50.984;3.538;2022-12-07T10:03:31;101999.56;;;9.82;68.19
47716;BME280;33476;50.984;3.538;2022-12-07T10:05:57;101999.72;;;9.76;68.47
47716;BME280;33476;50.984;3.538;2022-12-07T10:08:22;101983.59;;;9.62;68.85
47716;BME280;33476;50.984;3.538;2022-12-07T10:10:53;101993.41;;;9.50;68.89
47716;BME280;33476;50.984;3.538;2022-12-07T10:13:22;101991.56;;;9.55;68.87
47716;BME280;33476;50.984;3.538;2022-12-07T10:15:58;101988.19;;;9.50;68.96
47716;BME280;33476;50.984;3.538;2022-12-07T10:21:14;101993.03;;;9.66;69.13
47716;BME280;33476;50.984;3.538;2022-12-07T10:24:05;101996.66;;;9.60;69.38
47716;BME280;33476;50.984;3.538;2022-12-07T10:26:50;102000.31;;;9.53;69.72
47716;BME280;33476;50.984;3.538;2022-12-07T10:29:31;101993.50;;;9.47;69.61
47716;BME280;33476;50.984;3.538;2022-12-07T10:34:35;101992.88;;;9.38;70.09
47716;BME280;33476;50.984;3.538;2022-12-07T10:39:46;101975.13;;;9.16;70.64
47716;BME280;33476;50.984;3.538;2022-12-07T10:44:48;101967.47;;;9.10;70.80
47716;BME280;33476;50.984;3.538;2022-12-07T10:47:25;101964.00;;;9.08;70.83
47716;BME280;33476;50.984;3.538;2022-12-07T10:52:52;101963.78;;;9.17;70.31
47716;BME280;33476;50.984;3.538;2022-12-07T11:04:14;101948.28;;;9.13;71.22
47716;BME280;33476;50.984;3.538;2022-12-07T11:12:28;101936.88;;;9.17;70.71
47716;BME280;33476;50.984;3.538;2022-12-07T11:15:07;101936.88;;;9.17;70.79
47716;BME280;33476;50.984;3.538;2022-12-07T11:18:06;101935.03;;;9.22;71.11
47716;BME280;33476;50.984;3.538;2022-12-07T11:20:49;101929.63;;;9.29;70.89
47716;BME280;33476;50.984;3.538;2022-12-07T11:23:56;101928.81;;;9.27;71.11
47716;BME280;33476;50.984;3.538;2022-12-07T11:34:39;101926.03;;;9.34;71.43
47716;BME280;33476;50.984;3.538;2022-12-07T11:37:11;101916.41;;;9.37;70.80
47716;BME280;33476;50.984;3.538;2022-12-07T11:39:49;101920.81;;;9.34;71.51
47716;BME280;33476;50.984;3.538;2022-12-07T11:52:49;101912.22;;;9.64;71.07
47716;BME280;33476;50.984;3.538;2022-12-07T11:58:22;101905.84;;;9.74;70.68
47716;BME280;33476;50.984;3.538;2022-12-07T12:03:48;101886.88;;;9.69;70.17
47716;BME280;33476;50.984;3.538;2022-12-07T12:06:15;101889.53;;;9.66;70.29
47716;BME280;33476;50.984;3.538;2022-12-07T12:08:46;101877.56;;;9.59;70.30
47716;BME280;33476;50.984;3.538;2022-12-07T12:14:21;101861.09;;;9.57;70.49
47716;BME280;33476;50.984;3.538;2022-12-07T12:19:44;101866.28;;;9.58;70.50
47716;BME280;33476;50.984;3.538;2022-12-07T12:22:28;101859.50;;;9.53;70.51
47716;BME280;33476;50.984;3.538;2022-12-07T12:24:57;101865.56;;;9.53;70.99
47716;BME280;33476;50.984;3.538;2022-12-07T12:27:34;101860.53;;;9.46;70.51
47716;BME280;33476;50.984;3.538;2022-12-07T12:30:07;101868.59;;;9.37;70.62
47716;BME280;33476;50.984;3.538;2022-12-07T12:32:48;101871.56;;;9.23;70.81
47716;BME280;33476;50.984;3.538;2022-12-07T12:35:37;101866.00;;;9.03;70.98
47716;BME280;33476;50.984;3.538;2022-12-07T12:38:33;101864.41;;;8.97;70.96
47716;BME280;33476;50.984;3.538;2022-12-07T12:44:02;101852.25;;;8.96;71.15
47716;BME280;33476;50.984;3.538;2022-12-07T12:51:53;101841.28;;;9.17;70.30
47716;BME280;33476;50.984;3.538;2022-12-07T12:59:33;101835.13;;;9.21;70.50
47716;BME280;33476;50.984;3.538;2022-12-07T13:15:44;101821.22;;;9.21;70.55
47716;BME280;33476;50.984;3.538;2022-12-07T13:23:24;101816.50;;;9.35;70.44
47716;BME280;33476;50.984;3.538;2022-12-07T13:26:12;101809.44;;;9.39;70.82
47716;BME280;33476;50.984;3.538;2022-12-07T13:28:44;101814.34;;;9.49;70.36
47716;BME280;33476;50.984;3.538;2022-12-07T13:36:53;101793.03;;;9.66;69.96
47716;BME280;33476;50.984;3.538;2022-12-07T13:39:20;101788.72;;;9.65;69.97
47716;BME280;33476;50.984;3.538;2022-12-07T13:41:52;101791.38;;;9.64;70.02
47716;BME280;33476;50.984;3.538;2022-12-07T13:44:18;101788.38;;;9.76;69.61
47716;BME280;33476;50.984;3.538;2022-12-07T13:46:57;101795.56;;;9.68;69.46
47716;BME280;33476;50.984;3.538;2022-12-07T13:49:27;101793.97;;;9.64;69.78
47716;BME280;33476;50.984;3.538;2022-12-07T13:51:54;101785.41;;;9.58;70.06
47716;BME280;33476;50.984;3.538;2022-12-07T13:54:21;101782.91;;;9.55;70.21
47716;BME280;33476;50.984;3.538;2022-12-07T13:56:50;101778.66;;;9.51;70.45
47716;BME280;33476;50.984;3.538;2022-12-07T13:59:19;101777.00;;;9.49;70.25
47716;BME280;33476;50.984;3.538;2022-12-07T14:01:46;101771.88;;;9.46;70.06
47716;BME280;33476;50.984;3.538;2022-12-07T14:04:36;101769.31;;;9.44;70.29
47716;BME280;33476;50.984;3.538;2022-12-07T14:07:28;101774.50;;;9.46;70.29
47716;BME280;33476;50.984;3.538;2022-12-07T14:09:58;101767.34;;;9.52;70.10
47716;BME280;33476;50.984;3.538;2022-12-07T14:12:29;101770.88;;;9.50;69.70
47716;BME280;33476;50.984;3.538;2022-12-07T14:14:55;101773.41;;;9.53;69.51
47716;BME280;33476;50.984;3.538;2022-12-07T14:17:24;101761.31;;;9.50;69.43
47716;BME280;33476;50.984;3.538;2022-12-07T14:20:02;101761.53;;;9.43;68.99
47716;BME280;33476;50.984;3.538;2022-12-07T14:22:33;101765.00;;;9.43;69.28
47716;BME280;33476;50.984;3.538;2022-12-07T14:25:20;101764.97;;;9.45;69.05
47716;BME280;33476;50.984;3.538;2022-12-07T14:27:51;101758.00;;;9.45;69.03
47716;BME280;33476;50.984;3.538;2022-12-07T14:30:20;101750.22;;;9.42;68.44
47716;BME280;33476;50.984;3.538;2022-12-07T14:32:48;101747.84;;;9.35;69.05
47716;BME280;33476;50.984;3.538;2022-12-07T14:35:17;101755.75;;;9.32;68.72
47716;BME280;33476;50.984;3.538;2022-12-07T14:37:46;101754.09;;;9.29;68.82
47716;BME280;33476;50.984;3.538;2022-12-07T14:40:14;101749.81;;;9.26;68.36
47716;BME280;33476;50.984;3.538;2022-12-07T14:42:39;101746.38;;;9.24;68.59
47716;BME280;33476;50.984;3.538;2022-12-07T14:45:13;101750.00;;;9.20;68.54
47716;BME280;33476;50.984;3.538;2022-12-07T14:47:39;101751.69;;;9.21;68.51
47716;BME280;33476;50.984;3.538;2022-12-07T14:50:05;101750.03;;;9.19;68.26
47716;BME280;33476;50.984;3.538;2022-12-07T14:52:30;101750.16;;;9.14;68.55
47716;BME280;33476;50.984;3.538;2022-12-07T14:54:56;101744.19;;;9.09;68.23
47716;BME280;33476;50.984;3.538;2022-12-07T14:57:23;101737.31;;;9.07;68.54
47716;BME280;33476;50.984;3.538;2022-12-07T14:59:48;101742.59;;;9.05;68.83
47716;BME280;33476;50.984;3.538;2022-12-07T15:02:14;101739.19;;;9.01;68.67
47716;BME280;33476;50.984;3.538;2022-12-07T15:04:40;101736.56;;;9.03;69.02
47716;BME280;33476;50.984;3.538;2022-12-07T15:07:10;101740.06;;;9.02;68.45
47716;BME280;33476;50.984;3.538;2022-12-07T15:09:38;101733.06;;;9.04;68.72
47716;BME280;33476;50.984;3.538;2022-12-07T15:12:03;101733.06;;;9.04;68.43
47716;BME280;33476;50.984;3.538;2022-12-07T15:14:28;101728.75;;;9.03;68.43
47716;BME280;33476;50.984;3.538;2022-12-07T15:16:54;101730.63;;;8.98;69.04